Rumsey, Canada
Current Conditions -  °F | °C
As of 2:00 PM on Friday 24 Oct 2014 (Local Time) from CYQF Reporting Station
Few Clouds Few Clouds  
Wind Chill: 50°   Ceiling: Unl
Heat Index: 50°   Visibility: 15mi
Dew Point: 28°   Wind: 10mph
Humidity: 43%   Direction: 260°W
Pressure: 29.9"   Gusts: NA
Location:  51.85°N, 112.85°W
Report Text: CYQF 242000Z 26009KT 250V320 15SM FEW060 FEW200 10/M02 A2990 RMK CU1CI1 SLP144 DENSITY ALT 3000FT
Loading
Personal Weather Stations






























Interactive Weather Map
Tropical Storm Tracking
New forecast layout! Learn more

10-Day Weather Forecast

Advertisements
Track Severe Weather on mobile